sensor_id;sensor_type;location;lat;lon;timestamp;P1;durP1;ratioP1;P2;durP2;ratioP2
70014;SDS011;57358;51.094;6.760;2024-01-15T00:03:24;16.6;;;45.7;;
70014;SDS011;57358;51.094;6.760;2024-01-15T00:08:23;15.9;;;49.4;;
70014;SDS011;57358;51.094;6.760;2024-01-15T00:13:22;16.5;;;45.5;;
70014;SDS011;57358;51.094;6.760;2024-01-15T00:18:21;17.5;;;50.1;;
70014;SDS011;57358;51.094;6.760;2024-01-15T00:23:20;17.8;;;49.1;;
70014;SDS011;57358;51.094;6.760;2024-01-15T00:28:19;18.5;;;51.1;;
70014;SDS011;57358;51.094;6.760;2024-01-15T00:33:18;17.2;;;48;;
70014;SDS011;57358;51.094;6.760;2024-01-15T00:38:18;17.9;;;54.5;;
70014;SDS011;57358;51.094;6.760;2024-01-15T00:43:17;18.9;;;51.2;;
70014;SDS011;57358;51.094;6.760;2024-01-15T00:48:16;18.4;;;50;;
70014;SDS011;57358;51.094;6.760;2024-01-15T00:53:15;18.4;;;54.4;;
70014;SDS011;57358;51.094;6.760;2024-01-15T00:58:14;17.9;;;52.9;;
70014;SDS011;57358;51.094;6.760;2024-01-15T01:03:13;17.9;;;53.9;;
70014;SDS011;57358;51.094;6.760;2024-01-15T01:08:12;18.7;;;58.7;;
70014;SDS011;57358;51.094;6.760;2024-01-15T01:13:11;17.9;;;45.8;;
70014;SDS011;57358;51.094;6.760;2024-01-15T01:18:10;17;;;53.3;;
70014;SDS011;57358;51.094;6.760;2024-01-15T01:23:09;17;;;48.3;;
70014;SDS011;57358;51.094;6.760;2024-01-15T01:28:08;17.7;;;44.6;;
70014;SDS011;57358;51.094;6.760;2024-01-15T01:33:07;17.4;;;50.5;;
70014;SDS011;57358;51.094;6.760;2024-01-15T01:38:06;17.1;;;43.5;;
70014;SDS011;57358;51.094;6.760;2024-01-15T01:43:06;18.2;;;47.1;;
70014;SDS011;57358;51.094;6.760;2024-01-15T01:48:05;17.9;;;49.9;;
70014;SDS011;57358;51.094;6.760;2024-01-15T01:53:04;17.9;;;50.8;;
70014;SDS011;57358;51.094;6.760;2024-01-15T01:58:03;17.6;;;48.6;;
70014;SDS011;57358;51.094;6.760;2024-01-15T02:03:02;17.4;;;49.7;;
70014;SDS011;57358;51.094;6.760;2024-01-15T02:08:01;16.8;;;42.5;;
70014;SDS011;57358;51.094;6.760;2024-01-15T02:13:00;17.6;;;51.6;;
70014;SDS011;57358;51.094;6.760;2024-01-15T02:18:00;16.5;;;41.3;;
70014;SDS011;57358;51.094;6.760;2024-01-15T02:23:06;15;;;40.6;;
70014;SDS011;57358;51.094;6.760;2024-01-15T02:27:57;16.9;;;45.3;;
70014;SDS011;57358;51.094;6.760;2024-01-15T02:32:56;16.4;;;43.8;;
70014;SDS011;57358;51.094;6.760;2024-01-15T02:37:55;17.7;;;47.9;;
70014;SDS011;57358;51.094;6.760;2024-01-15T02:42:54;17.3;;;44;;
70014;SDS011;57358;51.094;6.760;2024-01-15T02:47:54;16;;;38.9;;
70014;SDS011;57358;51.094;6.760;2024-01-15T02:52:53;15.3;;;38;;
70014;SDS011;57358;51.094;6.760;2024-01-15T02:57:52;15;;;41.2;;
70014;SDS011;57358;51.094;6.760;2024-01-15T03:02:51;15;;;40.4;;
70014;SDS011;57358;51.094;6.760;2024-01-15T03:07:50;14.8;;;41.2;;
70014;SDS011;57358;51.094;6.760;2024-01-15T03:12:49;14;;;32;;
70014;SDS011;57358;51.094;6.760;2024-01-15T03:17:48;14.4;;;35.6;;
70014;SDS011;57358;51.094;6.760;2024-01-15T03:22:47;14.2;;;35.3;;
70014;SDS011;57358;51.094;6.760;2024-01-15T03:27:46;14;;;38.3;;
70014;SDS011;57358;51.094;6.760;2024-01-15T03:32:45;14.8;;;38.1;;
70014;SDS011;57358;51.094;6.760;2024-01-15T03:37:44;15.4;;;39;;
70014;SDS011;57358;51.094;6.760;2024-01-15T03:42:43;14.8;;;33.8;;
70014;SDS011;57358;51.094;6.760;2024-01-15T03:47:42;15.9;;;39.2;;
70014;SDS011;57358;51.094;6.760;2024-01-15T03:52:42;14.7;;;30.3;;
70014;SDS011;57358;51.094;6.760;2024-01-15T03:57:41;15.8;;;40.7;;
70014;SDS011;57358;51.094;6.760;2024-01-15T04:02:40;14.2;;;39.7;;
70014;SDS011;57358;51.094;6.760;2024-01-15T04:07:39;14.1;;;37.5;;
70014;SDS011;57358;51.094;6.760;2024-01-15T04:12:38;13.7;;;32.7;;
70014;SDS011;57358;51.094;6.760;2024-01-15T04:17:37;12.6;;;34;;
70014;SDS011;57358;51.094;6.760;2024-01-15T04:22:36;12.8;;;35.5;;
70014;SDS011;57358;51.094;6.760;2024-01-15T04:27:35;13.8;;;38.2;;
70014;SDS011;57358;51.094;6.760;2024-01-15T04:32:34;12.7;;;33.6;;
70014;SDS011;57358;51.094;6.760;2024-01-15T04:37:34;13.6;;;37.4;;
70014;SDS011;57358;51.094;6.760;2024-01-15T04:42:33;12.2;;;30.9;;
70014;SDS011;57358;51.094;6.760;2024-01-15T04:47:32;12.4;;;27.5;;
70014;SDS011;57358;51.094;6.760;2024-01-15T04:52:31;11.7;;;30;;
70014;SDS011;57358;51.094;6.760;2024-01-15T04:57:30;11.6;;;30;;
70014;SDS011;57358;51.094;6.760;2024-01-15T05:02:29;10.8;;;26.2;;
70014;SDS011;57358;51.094;6.760;2024-01-15T05:07:28;12.5;;;25.1;;
70014;SDS011;57358;51.094;6.760;2024-01-15T05:12:27;12.5;;;25.1;;
70014;SDS011;57358;51.094;6.760;2024-01-15T05:17:26;11.9;;;24.9;;
70014;SDS011;57358;51.094;6.760;2024-01-15T05:22:25;11.3;;;25.6;;
70014;SDS011;57358;51.094;6.760;2024-01-15T05:27:24;10.9;;;24.7;;
70014;SDS011;57358;51.094;6.760;2024-01-15T05:32:24;10.3;;;28.9;;
70014;SDS011;57358;51.094;6.760;2024-01-15T05:37:23;10.5;;;23.6;;
70014;SDS011;57358;51.094;6.760;2024-01-15T05:42:22;10.2;;;23.9;;
70014;SDS011;57358;51.094;6.760;2024-01-15T05:47:21;10.4;;;23.1;;
70014;SDS011;57358;51.094;6.760;2024-01-15T05:52:20;10.4;;;25.2;;
70014;SDS011;57358;51.094;6.760;2024-01-15T05:57:19;9.9;;;29.5;;
70014;SDS011;57358;51.094;6.760;2024-01-15T06:02:18;9.8;;;20.1;;
70014;SDS011;57358;51.094;6.760;2024-01-15T06:07:17;10.1;;;23.9;;
70014;SDS011;57358;51.094;6.760;2024-01-15T06:12:16;9.7;;;25;;
70014;SDS011;57358;51.094;6.760;2024-01-15T06:17:15;9.4;;;21.6;;
70014;SDS011;57358;51.094;6.760;2024-01-15T06:22:15;9.5;;;21.6;;
70014;SDS011;57358;51.094;6.760;2024-01-15T06:27:14;9.2;;;19.6;;
70014;SDS011;57358;51.094;6.760;2024-01-15T06:32:13;9.5;;;20.3;;
70014;SDS011;57358;51.094;6.760;2024-01-15T06:37:12;9.8;;;23.1;;
70014;SDS011;57358;51.094;6.760;2024-01-15T06:42:11;9.7;;;21.2;;
70014;SDS011;57358;51.094;6.760;2024-01-15T06:47:10;11.1;;;26.1;;
70014;SDS011;57358;51.094;6.760;2024-01-15T06:52:09;10.9;;;26.7;;
70014;SDS011;57358;51.094;6.760;2024-01-15T06:57:08;10.7;;;25.4;;
70014;SDS011;57358;51.094;6.760;2024-01-15T07:02:07;11.9;;;26.4;;
70014;SDS011;57358;51.094;6.760;2024-01-15T07:07:06;12.1;;;24.9;;
70014;SDS011;57358;51.094;6.760;2024-01-15T07:12:05;10.6;;;22.4;;
70014;SDS011;57358;51.094;6.760;2024-01-15T07:17:04;12.1;;;25.6;;
70014;SDS011;57358;51.094;6.760;2024-01-15T07:22:04;11.5;;;25.8;;
70014;SDS011;57358;51.094;6.760;2024-01-15T07:27:03;12.4;;;29.8;;
70014;SDS011;57358;51.094;6.760;2024-01-15T07:32:02;11.9;;;30.6;;
70014;SDS011;57358;51.094;6.760;2024-01-15T07:37:01;12.2;;;26.7;;
70014;SDS011;57358;51.094;6.760;2024-01-15T07:42:00;14;;;28.1;;
70014;SDS011;57358;51.094;6.760;2024-01-15T07:46:59;19.7;;;39.9;;
70014;SDS011;57358;51.094;6.760;2024-01-15T07:51:58;14.1;;;31.2;;
70014;SDS011;57358;51.094;6.760;2024-01-15T07:56:58;12.3;;;28;;
70014;SDS011;57358;51.094;6.760;2024-01-15T08:01:58;13.3;;;31.7;;
70014;SDS011;57358;51.094;6.760;2024-01-15T08:06:55;14.3;;;33.7;;
70014;SDS011;57358;51.094;6.760;2024-01-15T08:11:55;15.7;;;35.5;;
70014;SDS011;57358;51.094;6.760;2024-01-15T08:16:54;19.4;;;41.8;;
70014;SDS011;57358;51.094;6.760;2024-01-15T08:21:53;20.1;;;45.8;;
70014;SDS011;57358;51.094;6.760;2024-01-15T08:26:52;17.8;;;44.6;;
70014;SDS011;57358;51.094;6.760;2024-01-15T08:31:52;17.5;;;41.5;;
70014;SDS011;57358;51.094;6.760;2024-01-15T08:36:50;18;;;40.9;;
70014;SDS011;57358;51.094;6.760;2024-01-15T08:41:49;19.4;;;44.7;;
70014;SDS011;57358;51.094;6.760;2024-01-15T08:46:48;15.4;;;32.2;;
70014;SDS011;57358;51.094;6.760;2024-01-15T08:51:48;17.5;;;37.2;;
70014;SDS011;57358;51.094;6.760;2024-01-15T08:56:47;17.6;;;44;;
70014;SDS011;57358;51.094;6.760;2024-01-15T09:01:46;17.1;;;42.3;;
70014;SDS011;57358;51.094;6.760;2024-01-15T09:06:45;18.3;;;40.9;;
70014;SDS011;57358;51.094;6.760;2024-01-15T09:11:45;15.7;;;33.2;;
70014;SDS011;57358;51.094;6.760;2024-01-15T09:16:43;16.4;;;36.6;;
70014;SDS011;57358;51.094;6.760;2024-01-15T09:21:42;14.7;;;29.8;;
70014;SDS011;57358;51.094;6.760;2024-01-15T09:26:41;12.3;;;23.5;;
70014;SDS011;57358;51.094;6.760;2024-01-15T09:31:40;12.9;;;24.6;;
70014;SDS011;57358;51.094;6.760;2024-01-15T09:36:39;10.1;;;18.7;;
70014;SDS011;57358;51.094;6.760;2024-01-15T09:41:38;10.8;;;18.8;;
70014;SDS011;57358;51.094;6.760;2024-01-15T09:46:38;12.5;;;25.7;;
70014;SDS011;57358;51.094;6.760;2024-01-15T09:51:37;8.6;;;13.4;;
70014;SDS011;57358;51.094;6.760;2024-01-15T09:56:36;10.7;;;20.6;;
70014;SDS011;57358;51.094;6.760;2024-01-15T10:01:35;8.9;;;14.1;;
70014;SDS011;57358;51.094;6.760;2024-01-15T10:06:34;8.1;;;12.2;;
70014;SDS011;57358;51.094;6.760;2024-01-15T10:11:33;13.9;;;28.9;;
70014;SDS011;57358;51.094;6.760;2024-01-15T10:16:32;14;;;28.8;;
70014;SDS011;57358;51.094;6.760;2024-01-15T10:21:31;15.2;;;28.9;;
70014;SDS011;57358;51.094;6.760;2024-01-15T10:26:30;13.9;;;28;;
70014;SDS011;57358;51.094;6.760;2024-01-15T10:31:29;14.4;;;25.5;;
70014;SDS011;57358;51.094;6.760;2024-01-15T10:36:28;7.3;;;11.5;;
70014;SDS011;57358;51.094;6.760;2024-01-15T10:41:27;10.6;;;19.1;;
70014;SDS011;57358;51.094;6.760;2024-01-15T10:46:26;13.7;;;25;;
70014;SDS011;57358;51.094;6.760;2024-01-15T10:51:26;13.2;;;25;;
70014;SDS011;57358;51.094;6.760;2024-01-15T10:56:25;5.4;;;7;;
70014;SDS011;57358;51.094;6.760;2024-01-15T11:01:24;7.9;;;13.2;;
70014;SDS011;57358;51.094;6.760;2024-01-15T11:06:27;6.3;;;9.2;;
70014;SDS011;57358;51.094;6.760;2024-01-15T11:11:22;6.3;;;9.6;;
70014;SDS011;57358;51.094;6.760;2024-01-15T11:16:21;4.5;;;5.3;;
70014;SDS011;57358;51.094;6.760;2024-01-15T11:21:21;4.8;;;5.9;;
70014;SDS011;57358;51.094;6.760;2024-01-15T11:26:28;5.8;;;8.2;;
70014;SDS011;57358;51.094;6.760;2024-01-15T11:31:18;5.1;;;6.8;;
70014;SDS011;57358;51.094;6.760;2024-01-15T11:36:18;4.2;;;5.1;;
70014;SDS011;57358;51.094;6.760;2024-01-15T11:41:17;4;;;4.4;;
70014;SDS011;57358;51.094;6.760;2024-01-15T11:46:16;4.6;;;5.1;;
70014;SDS011;57358;51.094;6.760;2024-01-15T11:51:15;4.3;;;4.7;;
70014;SDS011;57358;51.094;6.760;2024-01-15T11:56:15;5.3;;;6;;
70014;SDS011;57358;51.094;6.760;2024-01-15T12:01:13;5.9;;;9.8;;
70014;SDS011;57358;51.094;6.760;2024-01-15T12:06:12;6.1;;;8.9;;
70014;SDS011;57358;51.094;6.760;2024-01-15T12:11:13;6.9;;;10.1;;
70014;SDS011;57358;51.094;6.760;2024-01-15T12:16:11;6.8;;;12.4;;
70014;SDS011;57358;51.094;6.760;2024-01-15T12:21:10;7.2;;;13.9;;
70014;SDS011;57358;51.094;6.760;2024-01-15T12:26:09;6.8;;;10.4;;
70014;SDS011;57358;51.094;6.760;2024-01-15T12:31:08;6.8;;;12.6;;
70014;SDS011;57358;51.094;6.760;2024-01-15T12:36:07;7.3;;;13.6;;
70014;SDS011;57358;51.094;6.760;2024-01-15T12:41:06;7.4;;;14.3;;
70014;SDS011;57358;51.094;6.760;2024-01-15T12:46:06;7.5;;;13.1;;
70014;SDS011;57358;51.094;6.760;2024-01-15T12:51:05;6.3;;;11.1;;
70014;SDS011;57358;51.094;6.760;2024-01-15T12:56:04;6.2;;;11.7;;
70014;SDS011;57358;51.094;6.760;2024-01-15T13:01:03;6.6;;;18.5;;
70014;SDS011;57358;51.094;6.760;2024-01-15T13:06:02;5.7;;;10;;
70014;SDS011;57358;51.094;6.760;2024-01-15T13:11:01;5.6;;;9.4;;
70014;SDS011;57358;51.094;6.760;2024-01-15T13:16:01;6.1;;;14;;
70014;SDS011;57358;51.094;6.760;2024-01-15T13:21:01;5.2;;;7.5;;
70014;SDS011;57358;51.094;6.760;2024-01-15T13:25:59;5.5;;;8.3;;
70014;SDS011;57358;51.094;6.760;2024-01-15T13:30:58;5.6;;;7.4;;
70014;SDS011;57358;51.094;6.760;2024-01-15T13:35:57;5.6;;;7.2;;
70014;SDS011;57358;51.094;6.760;2024-01-15T13:40:56;5;;;7.4;;
70014;SDS011;57358;51.094;6.760;2024-01-15T13:45:55;4.8;;;6.4;;
70014;SDS011;57358;51.094;6.760;2024-01-15T13:50:55;5;;;6.9;;
70014;SDS011;57358;51.094;6.760;2024-01-15T13:55:54;5.4;;;9.2;;
70014;SDS011;57358;51.094;6.760;2024-01-15T14:00:53;5.4;;;8.1;;
70014;SDS011;57358;51.094;6.760;2024-01-15T14:05:52;6.2;;;11.5;;
70014;SDS011;57358;51.094;6.760;2024-01-15T14:10:51;5.3;;;8.1;;
70014;SDS011;57358;51.094;6.760;2024-01-15T14:15:50;5.4;;;6.9;;
70014;SDS011;57358;51.094;6.760;2024-01-15T14:20:49;4.5;;;6;;
70014;SDS011;57358;51.094;6.760;2024-01-15T14:25:49;7.1;;;10.5;;
70014;SDS011;57358;51.094;6.760;2024-01-15T14:30:48;5.3;;;6.4;;
70014;SDS011;57358;51.094;6.760;2024-01-15T14:35:47;5.3;;;5.9;;
70014;SDS011;57358;51.094;6.760;2024-01-15T14:40:46;5.1;;;7.2;;
70014;SDS011;57358;51.094;6.760;2024-01-15T14:45:45;5.3;;;5.9;;
70014;SDS011;57358;51.094;6.760;2024-01-15T14:50:44;4.7;;;5.2;;
70014;SDS011;57358;51.094;6.760;2024-01-15T14:55:43;6.2;;;6.9;;
70014;SDS011;57358;51.094;6.760;2024-01-15T15:00:42;5.7;;;8.1;;
70014;SDS011;57358;51.094;6.760;2024-01-15T15:05:41;6.9;;;9.5;;
70014;SDS011;57358;51.094;6.760;2024-01-15T15:10:40;4.9;;;5.8;;
70014;SDS011;57358;51.094;6.760;2024-01-15T15:15:44;5.5;;;7.7;;
70014;SDS011;57358;51.094;6.760;2024-01-15T15:20:39;4.6;;;7.2;;
70014;SDS011;57358;51.094;6.760;2024-01-15T15:25:38;4.7;;;5.4;;
70014;SDS011;57358;51.094;6.760;2024-01-15T15:30:37;4.9;;;8.4;;
70014;SDS011;57358;51.094;6.760;2024-01-15T15:35:36;5;;;6.7;;
70014;SDS011;57358;51.094;6.760;2024-01-15T15:40:35;5;;;5.9;;
70014;SDS011;57358;51.094;6.760;2024-01-15T15:45:34;5.1;;;6.1;;
70014;SDS011;57358;51.094;6.760;2024-01-15T15:50:33;4.7;;;7;;
70014;SDS011;57358;51.094;6.760;2024-01-15T15:55:32;5.2;;;6.7;;
70014;SDS011;57358;51.094;6.760;2024-01-15T16:00:32;5.3;;;8;;
70014;SDS011;57358;51.094;6.760;2024-01-15T16:05:31;5;;;10.3;;
70014;SDS011;57358;51.094;6.760;2024-01-15T16:10:30;4.7;;;7.7;;
70014;SDS011;57358;51.094;6.760;2024-01-15T16:15:29;6.3;;;11.4;;
70014;SDS011;57358;51.094;6.760;2024-01-15T16:20:28;5.7;;;7.2;;
70014;SDS011;57358;51.094;6.760;2024-01-15T16:25:27;8.1;;;11.9;;
70014;SDS011;57358;51.094;6.760;2024-01-15T16:30:26;5.7;;;7.8;;
70014;SDS011;57358;51.094;6.760;2024-01-15T16:35:25;12.9;;;21.7;;
70014;SDS011;57358;51.094;6.760;2024-01-15T16:40:24;11.8;;;19.5;;
70014;SDS011;57358;51.094;6.760;2024-01-15T16:45:23;9.6;;;13.7;;
70014;SDS011;57358;51.094;6.760;2024-01-15T16:50:22;12.8;;;22.8;;
70014;SDS011;57358;51.094;6.760;2024-01-15T16:55:23;13.5;;;22.8;;
70014;SDS011;57358;51.094;6.760;2024-01-15T17:00:21;7.3;;;13.6;;
70014;SDS011;57358;51.094;6.760;2024-01-15T17:05:21;9.1;;;18.6;;
70014;SDS011;57358;51.094;6.760;2024-01-15T17:10:19;7;;;20.2;;
70014;SDS011;57358;51.094;6.760;2024-01-15T17:15:18;7.2;;;14.5;;
70014;SDS011;57358;51.094;6.760;2024-01-15T17:20:17;6.5;;;13.9;;
70014;SDS011;57358;51.094;6.760;2024-01-15T17:25:16;6.9;;;14;;
70014;SDS011;57358;51.094;6.760;2024-01-15T17:30:15;6;;;11.1;;
70014;SDS011;57358;51.094;6.760;2024-01-15T17:35:14;6.8;;;15.4;;
70014;SDS011;57358;51.094;6.760;2024-01-15T17:40:13;7.7;;;15.7;;
70014;SDS011;57358;51.094;6.760;2024-01-15T17:45:12;6.7;;;15.1;;
70014;SDS011;57358;51.094;6.760;2024-01-15T17:50:11;6.5;;;11.1;;
70014;SDS011;57358;51.094;6.760;2024-01-15T17:55:10;5.6;;;10.8;;
70014;SDS011;57358;51.094;6.760;2024-01-15T18:00:10;5.5;;;8.7;;
70014;SDS011;57358;51.094;6.760;2024-01-15T18:05:08;6.1;;;13.9;;
70014;SDS011;57358;51.094;6.760;2024-01-15T18:10:08;6.3;;;11.4;;
70014;SDS011;57358;51.094;6.760;2024-01-15T18:15:07;8.6;;;15.4;;
70014;SDS011;57358;51.094;6.760;2024-01-15T18:20:06;5.8;;;12.1;;
70014;SDS011;57358;51.094;6.760;2024-01-15T18:25:05;7.4;;;14.4;;
70014;SDS011;57358;51.094;6.760;2024-01-15T18:30:04;4.6;;;9.8;;
70014;SDS011;57358;51.094;6.760;2024-01-15T18:35:03;5.8;;;15.5;;
70014;SDS011;57358;51.094;6.760;2024-01-15T18:40:02;4.8;;;9.4;;
70014;SDS011;57358;51.094;6.760;2024-01-15T18:45:01;5.6;;;10.8;;
70014;SDS011;57358;51.094;6.760;2024-01-15T18:50:00;5.3;;;9.2;;
70014;SDS011;57358;51.094;6.760;2024-01-15T18:59:58;4.8;;;9.7;;
70014;SDS011;57358;51.094;6.760;2024-01-15T19:04:58;5.6;;;14.7;;
70014;SDS011;57358;51.094;6.760;2024-01-15T19:09:57;8.4;;;19.2;;
70014;SDS011;57358;51.094;6.760;2024-01-15T19:14:56;10;;;19.4;;
70014;SDS011;57358;51.094;6.760;2024-01-15T19:19:55;8.6;;;14.7;;
70014;SDS011;57358;51.094;6.760;2024-01-15T19:24:54;8.2;;;16.3;;
70014;SDS011;57358;51.094;6.760;2024-01-15T19:29:53;9.5;;;20.6;;
70014;SDS011;57358;51.094;6.760;2024-01-15T19:34:52;8.4;;;18.1;;
70014;SDS011;57358;51.094;6.760;2024-01-15T19:39:51;10.4;;;20.2;;
70014;SDS011;57358;51.094;6.760;2024-01-15T19:44:50;8;;;16.7;;
70014;SDS011;57358;51.094;6.760;2024-01-15T19:49:49;7.8;;;14.3;;
70014;SDS011;57358;51.094;6.760;2024-01-15T19:54:48;8.5;;;19.4;;
70014;SDS011;57358;51.094;6.760;2024-01-15T19:59:47;9.1;;;17.3;;
70014;SDS011;57358;51.094;6.760;2024-01-15T20:04:46;8.3;;;16.4;;
70014;SDS011;57358;51.094;6.760;2024-01-15T20:09:45;9.9;;;25.5;;
70014;SDS011;57358;51.094;6.760;2024-01-15T20:14:44;8.9;;;21.4;;
70014;SDS011;57358;51.094;6.760;2024-01-15T20:19:43;9.7;;;21.6;;
70014;SDS011;57358;51.094;6.760;2024-01-15T20:24:42;8.9;;;21;;
70014;SDS011;57358;51.094;6.760;2024-01-15T20:29:41;10.3;;;23.2;;
70014;SDS011;57358;51.094;6.760;2024-01-15T20:34:40;9.4;;;21.6;;
70014;SDS011;57358;51.094;6.760;2024-01-15T20:39:39;8.4;;;19.2;;
70014;SDS011;57358;51.094;6.760;2024-01-15T20:44:38;8.4;;;24.5;;
70014;SDS011;57358;51.094;6.760;2024-01-15T20:49:37;7.9;;;17.6;;
70014;SDS011;57358;51.094;6.760;2024-01-15T20:54:36;7.3;;;16.1;;
70014;SDS011;57358;51.094;6.760;2024-01-15T20:59:36;7.2;;;15.6;;
70014;SDS011;57358;51.094;6.760;2024-01-15T21:04:34;6.6;;;12.1;;
70014;SDS011;57358;51.094;6.760;2024-01-15T21:09:33;7.2;;;15.3;;
70014;SDS011;57358;51.094;6.760;2024-01-15T21:14:33;7;;;18.3;;
70014;SDS011;57358;51.094;6.760;2024-01-15T21:19:32;6.9;;;11.1;;
70014;SDS011;57358;51.094;6.760;2024-01-15T21:24:31;6.7;;;15.1;;
70014;SDS011;57358;51.094;6.760;2024-01-15T21:29:30;13.9;;;30.3;;
70014;SDS011;57358;51.094;6.760;2024-01-15T21:34:29;12.6;;;23.8;;
70014;SDS011;57358;51.094;6.760;2024-01-15T21:39:28;10.6;;;19.7;;
70014;SDS011;57358;51.094;6.760;2024-01-15T21:44:27;13.4;;;24.3;;
70014;SDS011;57358;51.094;6.760;2024-01-15T21:49:26;9.4;;;17;;
70014;SDS011;57358;51.094;6.760;2024-01-15T21:54:25;11.8;;;20.6;;
70014;SDS011;57358;51.094;6.760;2024-01-15T21:59:24;10.7;;;19.3;;
70014;SDS011;57358;51.094;6.760;2024-01-15T22:04:23;9.1;;;16.9;;
70014;SDS011;57358;51.094;6.760;2024-01-15T22:09:22;7.9;;;16.4;;
70014;SDS011;57358;51.094;6.760;2024-01-15T22:14:21;8.8;;;18.2;;
70014;SDS011;57358;51.094;6.760;2024-01-15T22:19:20;9.3;;;19.8;;
70014;SDS011;57358;51.094;6.760;2024-01-15T22:24:19;8.2;;;14.2;;
70014;SDS011;57358;51.094;6.760;2024-01-15T22:29:18;8;;;15.5;;
70014;SDS011;57358;51.094;6.760;2024-01-15T22:34:17;8.3;;;16.7;;
70014;SDS011;57358;51.094;6.760;2024-01-15T22:39:16;8.2;;;15.2;;
70014;SDS011;57358;51.094;6.760;2024-01-15T22:44:15;7.6;;;11.5;;
70014;SDS011;57358;51.094;6.760;2024-01-15T22:49:14;8.8;;;16.3;;
70014;SDS011;57358;51.094;6.760;2024-01-15T22:54:13;9.3;;;19.2;;
70014;SDS011;57358;51.094;6.760;2024-01-15T22:59:12;9;;;14.2;;
70014;SDS011;57358;51.094;6.760;2024-01-15T23:04:11;8.3;;;21;;
70014;SDS011;57358;51.094;6.760;2024-01-15T23:09:12;8.6;;;19;;
70014;SDS011;57358;51.094;6.760;2024-01-15T23:14:09;8.4;;;17.6;;
70014;SDS011;57358;51.094;6.760;2024-01-15T23:19:08;8;;;15.1;;
70014;SDS011;57358;51.094;6.760;2024-01-15T23:24:07;7.3;;;11.3;;
70014;SDS011;57358;51.094;6.760;2024-01-15T23:29:06;8.1;;;13.4;;
70014;SDS011;57358;51.094;6.760;2024-01-15T23:34:06;8.3;;;14.1;;
70014;SDS011;57358;51.094;6.760;2024-01-15T23:39:05;8.4;;;15.7;;
70014;SDS011;57358;51.094;6.760;2024-01-15T23:44:04;9;;;16.1;;
70014;SDS011;57358;51.094;6.760;2024-01-15T23:49:03;9.4;;;19.6;;
70014;SDS011;57358;51.094;6.760;2024-01-15T23:54:02;9;;;18.6;;
70014;SDS011;57358;51.094;6.760;2024-01-15T23:59:01;9.5;;;17.5;;
